sensor_id;sensor_type;location;lat;lon;timestamp;pressure;altitude;pressure_sealevel;temperature;humidity
44265;BME280;29954;50.828;4.922;2022-07-04T13:08:51;100578.22;;;23.01;54.18
44265;BME280;29954;50.828;4.922;2022-07-04T13:11:19;100452.38;;;22.87;51.88
44265;BME280;29954;50.828;4.922;2022-07-04T13:14:05;100458.38;;;22.93;51.72
44265;BME280;29954;50.828;4.922;2022-07-04T13:16:31;100492.34;;;22.95;52.39
44265;BME280;29954;50.828;4.922;2022-07-04T13:19:02;100548.66;;;23.00;53.50
44265;BME280;29954;50.828;4.922;2022-07-04T13:21:28;100480.38;;;22.98;52.14
44265;BME280;29954;50.828;4.922;2022-07-04T13:23:55;100452.81;;;22.96;51.83
44265;BME280;29954;50.828;4.922;2022-07-04T13:26:22;100448.06;;;23.04;51.78
44265;BME280;29954;50.828;4.922;2022-07-04T13:28:49;100601.06;;;23.07;54.57
44265;BME280;29954;50.828;4.922;2022-07-04T13:31:15;100546.06;;;23.25;53.37
44265;BME280;29954;50.828;4.922;2022-07-04T13:33:42;100484.91;;;23.16;52.39
44265;BME280;29954;50.828;4.922;2022-07-04T13:36:08;100425.00;;;23.28;50.96
44265;BME280;29954;50.828;4.922;2022-07-04T13:38:34;100456.56;;;23.29;51.56
44265;BME280;29954;50.828;4.922;2022-07-04T13:41:01;100408.69;;;23.41;50.77
44265;BME280;29954;50.828;4.922;2022-07-04T13:43:28;100426.25;;;23.38;51.26
44265;BME280;29954;50.828;4.922;2022-07-04T13:45:55;100584.50;;;23.39;54.25
44265;BME280;29954;50.828;4.922;2022-07-04T13:48:23;100405.09;;;23.40;50.50
44265;BME280;29954;50.828;4.922;2022-07-04T13:50:49;100508.28;;;23.56;52.48
44265;BME280;29954;50.828;4.922;2022-07-04T13:53:15;100499.50;;;23.58;52.04
44265;BME280;29954;50.828;4.922;2022-07-04T13:55:42;100488.78;;;23.77;51.64
44265;BME280;29954;50.828;4.922;2022-07-04T13:58:13;100315.25;;;23.52;48.60
44265;BME280;29954;50.828;4.922;2022-07-04T14:00:40;100278.88;;;23.56;48.08
44265;BME280;29954;50.828;4.922;2022-07-04T14:03:11;100264.47;;;23.54;47.86
44265;BME280;29954;50.828;4.922;2022-07-04T14:05:40;100375.13;;;23.44;49.89
44265;BME280;29954;50.828;4.922;2022-07-04T14:08:07;100352.75;;;23.41;49.51
44265;BME280;29954;50.828;4.922;2022-07-04T14:10:33;100584.63;;;23.56;54.05
44265;BME280;29954;50.828;4.922;2022-07-04T14:12:59;100369.53;;;23.48;49.75
44265;BME280;29954;50.828;4.922;2022-07-04T14:15:27;100403.53;;;23.53;50.12
44265;BME280;29954;50.828;4.922;2022-07-04T14:17:54;100441.94;;;23.53;51.02
44265;BME280;29954;50.828;4.922;2022-07-04T14:20:20;100416.38;;;23.58;50.21
44265;BME280;29954;50.828;4.922;2022-07-04T14:22:47;100539.47;;;23.58;52.95
44265;BME280;29954;50.828;4.922;2022-07-04T14:25:13;100473.94;;;23.66;51.56
44265;BME280;29954;50.828;4.922;2022-07-04T14:27:40;100432.31;;;23.54;50.74
44265;BME280;29954;50.828;4.922;2022-07-04T14:30:06;100479.53;;;23.59;51.88
44265;BME280;29954;50.828;4.922;2022-07-04T14:32:34;100547.88;;;23.65;53.02
44265;BME280;29954;50.828;4.922;2022-07-04T14:35:00;100465.19;;;23.75;51.05
44265;BME280;29954;50.828;4.922;2022-07-04T14:37:27;100401.22;;;23.80;50.22
44265;BME280;29954;50.828;4.922;2022-07-04T14:39:54;100362.84;;;23.88;49.39
44265;BME280;29954;50.828;4.922;2022-07-04T14:42:20;100359.22;;;23.66;49.47
44265;BME280;29954;50.828;4.922;2022-07-04T14:44:47;100291.69;;;23.61;48.27
44265;BME280;29954;50.828;4.922;2022-07-04T14:47:14;100368.00;;;23.65;49.87
44265;BME280;29954;50.828;4.922;2022-07-04T14:49:41;100419.19;;;23.62;50.60
44265;BME280;29954;50.828;4.922;2022-07-04T14:52:07;100445.59;;;23.82;51.21
44265;BME280;29954;50.828;4.922;2022-07-04T14:54:34;100392.41;;;23.75;50.27
44265;BME280;29954;50.828;4.922;2022-07-04T14:57:00;100404.00;;;23.70;50.62
44265;BME280;29954;50.828;4.922;2022-07-04T14:59:29;100363.22;;;23.58;50.20
44265;BME280;29954;50.828;4.922;2022-07-04T15:01:55;100429.94;;;23.52;51.21
44265;BME280;29954;50.828;4.922;2022-07-04T15:04:22;100433.13;;;23.54;51.23
44265;BME280;29954;50.828;4.922;2022-07-04T15:06:48;100394.78;;;23.62;50.42
44265;BME280;29954;50.828;4.922;2022-07-04T15:09:15;100516.78;;;23.77;52.66
44265;BME280;29954;50.828;4.922;2022-07-04T15:11:41;100655.88;;;23.70;55.86
44265;BME280;29954;50.828;4.922;2022-07-04T15:14:07;100601.41;;;23.53;55.30
44265;BME280;29954;50.828;4.922;2022-07-04T15:16:34;100450.75;;;23.66;51.74
44265;BME280;29954;50.828;4.922;2022-07-04T15:19:01;100440.84;;;23.97;51.29
44265;BME280;29954;50.828;4.922;2022-07-04T15:21:28;100386.06;;;23.96;50.29
44265;BME280;29954;50.828;4.922;2022-07-04T15:24:13;100389.66;;;24.03;50.05
44265;BME280;29954;50.828;4.922;2022-07-04T15:26:47;100508.44;;;23.95;52.62
44265;BME280;29954;50.828;4.922;2022-07-04T15:29:21;100483.59;;;23.83;52.02
44265;BME280;29954;50.828;4.922;2022-07-04T15:31:49;100532.34;;;23.75;53.33
44265;BME280;29954;50.828;4.922;2022-07-04T15:34:16;100571.94;;;23.77;54.17
44265;BME280;29954;50.828;4.922;2022-07-04T15:36:42;100541.97;;;23.77;53.61
44265;BME280;29954;50.828;4.922;2022-07-04T15:39:10;100593.91;;;23.75;54.81
44265;BME280;29954;50.828;4.922;2022-07-04T15:41:37;100560.34;;;23.75;53.91
44265;BME280;29954;50.828;4.922;2022-07-04T15:44:04;100682.25;;;23.72;56.84
44265;BME280;29954;50.828;4.922;2022-07-04T15:46:31;100599.91;;;23.73;55.11
44265;BME280;29954;50.828;4.922;2022-07-04T15:48:58;100717.31;;;23.55;58.06
44265;BME280;29954;50.828;4.922;2022-07-04T15:51:24;100707.72;;;23.56;57.92
44265;BME280;29954;50.828;4.922;2022-07-04T15:54:10;100583.50;;;23.68;55.03
44265;BME280;29954;50.828;4.922;2022-07-04T15:56:36;100551.09;;;23.67;54.29
44265;BME280;29954;50.828;4.922;2022-07-04T15:59:02;100521.16;;;23.75;53.76
44265;BME280;29954;50.828;4.922;2022-07-04T16:01:29;100346.47;;;23.79;50.06
44265;BME280;29954;50.828;4.922;2022-07-04T16:03:55;100559.91;;;23.73;54.72
44265;BME280;29954;50.828;4.922;2022-07-04T16:06:22;100664.66;;;23.72;57.09
44265;BME280;29954;50.828;4.922;2022-07-04T16:08:49;100584.63;;;23.56;55.02
44265;BME280;29954;50.828;4.922;2022-07-04T16:11:15;100364.06;;;23.87;50.57
44265;BME280;29954;50.828;4.922;2022-07-04T16:13:42;100554.72;;;23.75;55.05
44265;BME280;29954;50.828;4.922;2022-07-04T16:16:08;100433.59;;;23.81;52.10
44265;BME280;29954;50.828;4.922;2022-07-04T16:18:34;100456.03;;;23.88;52.84
44265;BME280;29954;50.828;4.922;2022-07-04T16:21:01;100503.13;;;23.72;53.62
44265;BME280;29954;50.828;4.922;2022-07-04T16:23:27;100480.75;;;23.72;53.46
44265;BME280;29954;50.828;4.922;2022-07-04T16:25:54;100335.66;;;23.92;49.88
44265;BME280;29954;50.828;4.922;2022-07-04T16:28:20;100549.59;;;23.87;54.61
44265;BME280;29954;50.828;4.922;2022-07-04T16:30:47;100617.09;;;23.75;56.59
44265;BME280;29954;50.828;4.922;2022-07-04T16:33:13;100619.88;;;23.72;56.48
44265;BME280;29954;50.828;4.922;2022-07-04T16:35:39;100623.13;;;23.77;56.22
44265;BME280;29954;50.828;4.922;2022-07-04T16:38:12;100634.25;;;23.67;56.94
44265;BME280;29954;50.828;4.922;2022-07-04T16:40:38;100511.97;;;23.78;54.04
44265;BME280;29954;50.828;4.922;2022-07-04T16:43:05;100460.78;;;23.81;53.23
44265;BME280;29954;50.828;4.922;2022-07-04T16:45:37;100557.16;;;23.76;55.21
44265;BME280;29954;50.828;4.922;2022-07-04T16:48:04;100525.19;;;23.84;54.08
44265;BME280;29954;50.828;4.922;2022-07-04T16:50:32;100630.25;;;23.68;56.85
44265;BME280;29954;50.828;4.922;2022-07-04T16:52:59;100650.19;;;23.63;57.22
44265;BME280;29954;50.828;4.922;2022-07-04T16:55:25;100680.19;;;23.62;57.98
44265;BME280;29954;50.828;4.922;2022-07-04T16:57:52;100613.09;;;23.69;56.68
44265;BME280;29954;50.828;4.922;2022-07-04T17:00:18;100505.97;;;23.83;53.71
44265;BME280;29954;50.828;4.922;2022-07-04T17:02:45;100397.59;;;23.73;52.04
44265;BME280;29954;50.828;4.922;2022-07-04T17:05:11;100358.44;;;23.83;50.67
44265;BME280;29954;50.828;4.922;2022-07-04T17:07:38;100301.66;;;23.90;49.68
44265;BME280;29954;50.828;4.922;2022-07-04T17:10:04;100332.06;;;23.88;50.35
44265;BME280;29954;50.828;4.922;2022-07-04T17:12:31;100344.84;;;23.92;50.76
44265;BME280;29954;50.828;4.922;2022-07-04T17:14:58;100349.66;;;23.88;50.64
44265;BME280;29954;50.828;4.922;2022-07-04T17:17:25;100578.31;;;23.74;55.84
44265;BME280;29954;50.828;4.922;2022-07-04T17:19:55;100491.19;;;23.79;53.39
44265;BME280;29954;50.828;4.922;2022-07-04T17:22:22;100440.03;;;23.92;52.30
44265;BME280;29954;50.828;4.922;2022-07-04T17:24:49;100643.56;;;23.85;57.01
44265;BME280;29954;50.828;4.922;2022-07-04T17:27:15;100581.56;;;23.79;56.08
44265;BME280;29954;50.828;4.922;2022-07-04T17:29:42;100662.75;;;23.86;57.45
44265;BME280;29954;50.828;4.922;2022-07-04T17:32:09;100534.75;;;23.76;54.66
44265;BME280;29954;50.828;4.922;2022-07-04T17:34:35;100605.09;;;23.75;56.52
44265;BME280;29954;50.828;4.922;2022-07-04T17:37:02;100551.56;;;23.80;54.80
44265;BME280;29954;50.828;4.922;2022-07-04T17:39:38;100390.41;;;23.82;51.49
44265;BME280;29954;50.828;4.922;2022-07-04T17:42:05;100396.44;;;23.77;51.81
44265;BME280;29954;50.828;4.922;2022-07-04T17:44:31;100350.03;;;23.69;50.93
44265;BME280;29954;50.828;4.922;2022-07-04T17:46:58;100339.22;;;23.64;50.87
44265;BME280;29954;50.828;4.922;2022-07-04T17:49:24;100321.63;;;23.64;50.46
44265;BME280;29954;50.828;4.922;2022-07-04T17:51:51;100314.03;;;23.64;50.25
44265;BME280;29954;50.828;4.922;2022-07-04T17:54:17;100331.66;;;23.68;50.37
44265;BME280;29954;50.828;4.922;2022-07-04T17:57:03;100350.03;;;23.66;50.88
44265;BME280;29954;50.828;4.922;2022-07-04T17:59:30;100396.81;;;23.62;51.85
44265;BME280;29954;50.828;4.922;2022-07-04T18:01:57;100401.19;;;23.59;51.99
44265;BME280;29954;50.828;4.922;2022-07-04T18:04:23;100417.94;;;23.55;52.20
44265;BME280;29954;50.828;4.922;2022-07-04T18:06:50;100399.56;;;23.51;51.87
44265;BME280;29954;50.828;4.922;2022-07-04T18:09:18;100390.31;;;23.47;51.68
44265;BME280;29954;50.828;4.922;2022-07-04T18:11:44;100407.53;;;23.49;52.03
44265;BME280;29954;50.828;4.922;2022-07-04T18:14:11;100415.06;;;23.45;52.38
44265;BME280;29954;50.828;4.922;2022-07-04T18:16:37;100421.09;;;23.43;52.15
44265;BME280;29954;50.828;4.922;2022-07-04T18:19:04;100431.06;;;23.41;52.48
44265;BME280;29954;50.828;4.922;2022-07-04T18:21:37;100462.22;;;23.39;52.90
44265;BME280;29954;50.828;4.922;2022-07-04T18:24:03;100432.66;;;23.38;52.41
44265;BME280;29954;50.828;4.922;2022-07-04T18:26:30;100447.03;;;23.37;52.65
44265;BME280;29954;50.828;4.922;2022-07-04T18:28:56;100437.03;;;23.32;52.25
44265;BME280;29954;50.828;4.922;2022-07-04T18:31:23;100454.22;;;23.34;52.66
44265;BME280;29954;50.828;4.922;2022-07-04T18:33:49;100470.59;;;23.36;53.03
44265;BME280;29954;50.828;4.922;2022-07-04T18:36:16;100498.53;;;23.29;53.53
44265;BME280;29954;50.828;4.922;2022-07-04T18:38:42;100514.56;;;23.35;53.75
44265;BME280;29954;50.828;4.922;2022-07-04T18:41:09;100546.44;;;23.27;54.38
44265;BME280;29954;50.828;4.922;2022-07-04T18:43:53;100619.19;;;23.31;55.53
44265;BME280;29954;50.828;4.922;2022-07-04T18:46:20;100675.19;;;23.38;56.42
44265;BME280;29954;50.828;4.922;2022-07-04T18:48:47;100684.81;;;23.40;57.04
44265;BME280;29954;50.828;4.922;2022-07-04T18:51:13;100711.16;;;23.39;57.27
44265;BME280;29954;50.828;4.922;2022-07-04T18:53:42;100711.50;;;23.31;57.50
44265;BME280;29954;50.828;4.922;2022-07-04T18:56:09;100721.06;;;23.26;57.79
44265;BME280;29954;50.828;4.922;2022-07-04T18:58:39;100730.31;;;23.34;57.78
44265;BME280;29954;50.828;4.922;2022-07-04T19:01:06;100743.31;;;23.15;58.19
44265;BME280;29954;50.828;4.922;2022-07-04T19:03:33;100756.84;;;23.10;58.61
44265;BME280;29954;50.828;4.922;2022-07-04T19:06:00;100785.59;;;23.10;58.78
44265;BME280;29954;50.828;4.922;2022-07-04T19:08:29;100777.91;;;23.00;58.80
44265;BME280;29954;50.828;4.922;2022-07-04T19:10:56;100771.91;;;22.98;58.54
44265;BME280;29954;50.828;4.922;2022-07-04T19:13:23;100775.06;;;22.97;58.51
44265;BME280;29954;50.828;4.922;2022-07-04T19:15:49;100771.00;;;22.91;58.67
44265;BME280;29954;50.828;4.922;2022-07-04T19:18:16;100784.50;;;22.81;58.83
44265;BME280;29954;50.828;4.922;2022-07-04T19:20:42;100788.78;;;22.75;59.08
44265;BME280;29954;50.828;4.922;2022-07-04T19:23:09;100799.16;;;22.75;59.35
44265;BME280;29954;50.828;4.922;2022-07-04T19:25:36;100807.88;;;22.70;59.28
44265;BME280;29954;50.828;4.922;2022-07-04T19:28:20;100803.13;;;22.74;59.36
44265;BME280;29954;50.828;4.922;2022-07-04T19:30:46;100819.78;;;22.67;59.62
44265;BME280;29954;50.828;4.922;2022-07-04T19:33:16;100833.25;;;22.58;59.75
44265;BME280;29954;50.828;4.922;2022-07-04T19:35:43;100840.66;;;22.46;60.09
44265;BME280;29954;50.828;4.922;2022-07-04T19:38:09;100841.16;;;22.52;60.16
44265;BME280;29954;50.828;4.922;2022-07-04T19:40:35;100833.75;;;22.37;60.01
44265;BME280;29954;50.828;4.922;2022-07-04T19:43:02;100842.94;;;22.37;60.00
44265;BME280;29954;50.828;4.922;2022-07-04T19:45:28;100844.06;;;22.33;59.99
44265;BME280;29954;50.828;4.922;2022-07-04T19:47:55;100844.72;;;22.23;60.02
44265;BME280;29954;50.828;4.922;2022-07-04T19:50:22;100841.44;;;22.17;59.68
44265;BME280;29954;50.828;4.922;2022-07-04T19:52:48;100833.38;;;22.12;59.78
44265;BME280;29954;50.828;4.922;2022-07-04T19:55:15;100817.13;;;22.18;59.04
44265;BME280;29954;50.828;4.922;2022-07-04T19:57:42;100768.72;;;22.06;58.19
44265;BME280;29954;50.828;4.922;2022-07-04T20:00:12;100761.97;;;22.11;57.90
44265;BME280;29954;50.828;4.922;2022-07-04T20:02:40;100737.63;;;22.08;57.28
44265;BME280;29954;50.828;4.922;2022-07-04T20:05:07;100739.94;;;22.02;57.29
44265;BME280;29954;50.828;4.922;2022-07-04T20:07:40;100680.75;;;21.93;56.07
44265;BME280;29954;50.828;4.922;2022-07-04T20:10:07;100687.16;;;21.94;55.97
44265;BME280;29954;50.828;4.922;2022-07-04T20:12:34;100662.91;;;21.98;55.43
44265;BME280;29954;50.828;4.922;2022-07-04T20:15:00;100641.03;;;22.00;54.71
44265;BME280;29954;50.828;4.922;2022-07-04T20:17:28;100651.75;;;21.98;54.90
44265;BME280;29954;50.828;4.922;2022-07-04T20:19:58;100623.72;;;21.91;54.50
44265;BME280;29954;50.828;4.922;2022-07-04T20:22:25;100622.88;;;21.87;54.40
44265;BME280;29954;50.828;4.922;2022-07-04T20:24:52;100641.59;;;21.86;54.80
44265;BME280;29954;50.828;4.922;2022-07-04T20:27:20;100628.38;;;21.80;54.54
44265;BME280;29954;50.828;4.922;2022-07-04T20:29:46;100637.09;;;21.78;54.63
44265;BME280;29954;50.828;4.922;2022-07-04T20:32:13;100653.00;;;21.74;54.79
44265;BME280;29954;50.828;4.922;2022-07-04T20:34:41;100650.25;;;21.78;54.94
44265;BME280;29954;50.828;4.922;2022-07-04T20:37:08;100654.66;;;21.79;54.67
44265;BME280;29954;50.828;4.922;2022-07-04T20:39:35;100664.91;;;21.71;55.04
44265;BME280;29954;50.828;4.922;2022-07-04T20:42:02;100681.91;;;21.62;55.22
44265;BME280;29954;50.828;4.922;2022-07-04T20:44:30;100718.06;;;21.55;56.09
44265;BME280;29954;50.828;4.922;2022-07-04T20:46:57;100736.00;;;21.54;56.44
44265;BME280;29954;50.828;4.922;2022-07-04T20:49:25;100737.53;;;21.52;56.40
44265;BME280;29954;50.828;4.922;2022-07-04T20:51:51;100749.38;;;21.45;56.73
44265;BME280;29954;50.828;4.922;2022-07-04T20:54:18;100770.44;;;21.43;57.08
44265;BME280;29954;50.828;4.922;2022-07-04T20:56:44;100773.56;;;21.38;57.13
44265;BME280;29954;50.828;4.922;2022-07-04T20:59:11;100782.34;;;21.40;57.17
44265;BME280;29954;50.828;4.922;2022-07-04T21:01:37;100773.84;;;21.32;57.05
44265;BME280;29954;50.828;4.922;2022-07-04T21:04:04;100779.44;;;21.32;57.16
44265;BME280;29954;50.828;4.922;2022-07-04T21:06:31;100781.41;;;21.32;57.05
44265;BME280;29954;50.828;4.922;2022-07-04T21:08:57;100792.28;;;21.37;57.15
44265;BME280;29954;50.828;4.922;2022-07-04T21:11:24;100798.69;;;21.41;57.19
44265;BME280;29954;50.828;4.922;2022-07-04T21:13:51;100801.84;;;21.40;57.31
44265;BME280;29954;50.828;4.922;2022-07-04T21:16:18;100800.56;;;21.33;57.27
44265;BME280;29954;50.828;4.922;2022-07-04T21:18:44;100806.06;;;21.30;57.42
44265;BME280;29954;50.828;4.922;2022-07-04T21:21:11;100815.31;;;21.34;57.53
44265;BME280;29954;50.828;4.922;2022-07-04T21:23:37;100822.84;;;21.33;57.54
44265;BME280;29954;50.828;4.922;2022-07-04T21:26:04;100839.22;;;21.35;58.02
44265;BME280;29954;50.828;4.922;2022-07-04T21:28:30;100851.56;;;21.34;58.14
44265;BME280;29954;50.828;4.922;2022-07-04T21:30:57;100864.09;;;21.05;58.70
44265;BME280;29954;50.828;4.922;2022-07-04T21:33:23;100888.06;;;20.90;59.18
44265;BME280;29954;50.828;4.922;2022-07-04T21:35:50;100887.28;;;20.90;59.37
44265;BME280;29954;50.828;4.922;2022-07-04T21:38:16;100911.91;;;20.88;59.74
44265;BME280;29954;50.828;4.922;2022-07-04T21:40:43;100890.72;;;21.22;58.86
44265;BME280;29954;50.828;4.922;2022-07-04T21:43:09;100891.16;;;21.43;58.77
44265;BME280;29954;50.828;4.922;2022-07-04T21:45:37;100890.44;;;21.46;58.49
44265;BME280;29954;50.828;4.922;2022-07-04T21:48:04;100895.00;;;21.35;58.62
44265;BME280;29954;50.828;4.922;2022-07-04T21:50:31;100894.34;;;21.22;58.88
44265;BME280;29954;50.828;4.922;2022-07-04T21:53:04;100903.44;;;21.19;59.03
44265;BME280;29954;50.828;4.922;2022-07-04T21:55:30;100912.50;;;21.16;59.21
44265;BME280;29954;50.828;4.922;2022-07-04T21:58:00;100906.84;;;21.13;59.06
44265;BME280;29954;50.828;4.922;2022-07-04T22:00:27;100933.13;;;20.57;60.13
44265;BME280;29954;50.828;4.922;2022-07-04T22:02:53;100928.91;;;21.18;59.27
44265;BME280;29954;50.828;4.922;2022-07-04T22:05:20;100911.16;;;21.26;58.91
44265;BME280;29954;50.828;4.922;2022-07-04T22:07:46;100914.44;;;21.31;58.94
44265;BME280;29954;50.828;4.922;2022-07-04T22:10:18;100913.03;;;21.22;58.96
44265;BME280;29954;50.828;4.922;2022-07-04T22:12:45;100910.69;;;21.24;58.76
44265;BME280;29954;50.828;4.922;2022-07-04T22:15:11;100903.06;;;21.21;58.62
44265;BME280;29954;50.828;4.922;2022-07-04T22:17:38;100908.56;;;21.17;58.66
44265;BME280;29954;50.828;4.922;2022-07-04T22:20:04;100923.22;;;21.14;59.31
44265;BME280;29954;50.828;4.922;2022-07-04T22:22:31;100928.53;;;21.19;59.15
44265;BME280;29954;50.828;4.922;2022-07-04T22:24:57;100936.69;;;21.12;59.21
44265;BME280;29954;50.828;4.922;2022-07-04T22:27:24;100950.03;;;21.19;59.52
44265;BME280;29954;50.828;4.922;2022-07-04T22:29:50;100933.72;;;21.02;59.28
44265;BME280;29954;50.828;4.922;2022-07-04T22:32:17;100930.94;;;20.86;59.42
44265;BME280;29954;50.828;4.922;2022-07-04T22:34:43;100921.38;;;20.83;59.21
44265;BME280;29954;50.828;4.922;2022-07-04T22:37:10;100913.53;;;20.89;59.05
44265;BME280;29954;50.828;4.922;2022-07-04T22:39:37;100917.25;;;20.96;58.92
44265;BME280;29954;50.828;4.922;2022-07-04T22:42:03;100922.25;;;21.07;58.98
44265;BME280;29954;50.828;4.922;2022-07-04T22:44:30;100917.63;;;21.14;58.87
44265;BME280;29954;50.828;4.922;2022-07-04T22:46:56;100913.59;;;21.12;58.92
44265;BME280;29954;50.828;4.922;2022-07-04T22:49:23;100917.44;;;21.23;58.64
44265;BME280;29954;50.828;4.922;2022-07-04T22:51:49;100904.63;;;21.03;58.72
44265;BME280;29954;50.828;4.922;2022-07-04T22:54:16;100914.19;;;21.02;58.87
44265;BME280;29954;50.828;4.922;2022-07-04T22:57:01;100914.47;;;20.96;58.93
44265;BME280;29954;50.828;4.922;2022-07-04T22:59:28;100925.63;;;20.96;59.17
44265;BME280;29954;50.828;4.922;2022-07-04T23:01:55;100928.75;;;20.95;59.06
44265;BME280;29954;50.828;4.922;2022-07-04T23:04:21;100941.03;;;20.90;59.26
44265;BME280;29954;50.828;4.922;2022-07-04T23:06:48;100936.16;;;20.87;59.31
44265;BME280;29954;50.828;4.922;2022-07-04T23:09:14;100938.09;;;20.83;59.46
44265;BME280;29954;50.828;4.922;2022-07-04T23:11:40;100947.88;;;20.77;59.63
44265;BME280;29954;50.828;4.922;2022-07-04T23:14:07;100941.88;;;20.75;59.55
44265;BME280;29954;50.828;4.922;2022-07-04T23:16:33;100939.00;;;20.72;59.56
44265;BME280;29954;50.828;4.922;2022-07-04T23:19:01;100943.66;;;20.68;59.60
44265;BME280;29954;50.828;4.922;2022-07-04T23:21:28;100952.84;;;20.68;59.59
44265;BME280;29954;50.828;4.922;2022-07-04T23:23:54;100944.69;;;20.59;59.80
44265;BME280;29954;50.828;4.922;2022-07-04T23:26:21;100947.41;;;20.56;59.83
44265;BME280;29954;50.828;4.922;2022-07-04T23:28:47;100941.53;;;20.61;59.64
44265;BME280;29954;50.828;4.922;2022-07-04T23:31:14;100954.81;;;20.68;59.74
44265;BME280;29954;50.828;4.922;2022-07-04T23:33:40;100942.84;;;20.48;59.83
44265;BME280;29954;50.828;4.922;2022-07-04T23:36:07;100970.69;;;20.48;60.35
44265;BME280;29954;50.828;4.922;2022-07-04T23:38:33;100960.78;;;20.50;60.15
44265;BME280;29954;50.828;4.922;2022-07-04T23:41:00;100970.94;;;20.43;60.12
44265;BME280;29954;50.828;4.922;2022-07-04T23:43:34;100969.25;;;20.38;60.29
44265;BME280;29954;50.828;4.922;2022-07-04T23:46:01;100972.84;;;20.39;60.50
44265;BME280;29954;50.828;4.922;2022-07-04T23:48:27;100974.38;;;20.36;60.41
44265;BME280;29954;50.828;4.922;2022-07-04T23:50:54;100969.66;;;20.40;60.31
44265;BME280;29954;50.828;4.922;2022-07-04T23:53:20;100972.38;;;20.37;60.36
44265;BME280;29954;50.828;4.922;2022-07-04T23:55:47;100958.19;;;20.42;60.23
44265;BME280;29954;50.828;4.922;2022-07-04T23:58:13;100950.97;;;20.25;60.49
